Time;durP1;ratioP1;P1;durP2;ratioP2;P2;SDS_P1;SDS_P2;PMS_P1;PMS_P2;Temp;Humidity;BMP_temperature;BMP_pressure;BME280_temperature;BME280_humidity;BME280_pressure;Samples;Min_cycle;Max_cycle;Signal;HPM_P1;HPM_P2
2021/04/28 00:00:32;;;;;;;4.57;2.38;;;1.90;93.40;;;;;;5060466;28;20025;-72
2021/04/28 00:03:00;;;;;;;5.78;2.20;;;1.90;93.90;;;;;;5060603;28;20028;-72
2021/04/28 00:05:28;;;;;;;5.68;1.90;;;1.90;94.40;;;;;;5060462;28;20417;-72
2021/04/28 00:07:56;;;;;;;3.55;2.15;;;1.90;94.60;;;;;;5060274;28;20111;-72
2021/04/28 00:10:31;;;;;;;7.68;2.30;;;1.80;95.00;;;;;;5060013;28;20410;-72
2021/04/28 00:13:00;;;;;;;6.15;2.30;;;1.70;95.10;;;;;;5058808;28;20052;-72
2021/04/28 00:15:33;;;;;;;5.25;2.25;;;1.70;95.20;;;;;;5041107;28;20067;-73
2021/04/28 00:18:01;;;;;;;6.07;2.15;;;1.80;95.50;;;;;;5059217;28;20313;-73
2021/04/28 00:20:29;;;;;;;4.57;2.05;;;1.70;95.60;;;;;;5041016;28;20468;-72
2021/04/28 00:22:57;;;;;;;4.20;2.38;;;1.70;95.70;;;;;;5059465;28;20095;-73
2021/04/28 00:25:24;;;;;;;4.60;2.20;;;1.60;95.90;;;;;;5058964;28;20025;-73
2021/04/28 00:27:52;;;;;;;4.25;2.28;;;1.60;96.20;;;;;;5057983;28;20048;-72
2021/04/28 00:30:20;;;;;;;4.60;2.05;;;1.50;96.40;;;;;;5059145;28;20447;-72
2021/04/28 00:32:49;;;;;;;3.60;1.98;;;1.50;96.90;;;;;;5058945;28;20100;-73
2021/04/28 00:35:24;;;;;;;5.07;2.00;;;1.40;97.10;;;;;;5059346;28;20025;-73
2021/04/28 00:37:52;;;;;;;2.80;1.70;;;1.40;97.30;;;;;;5059442;28;20021;-72
2021/04/28 00:40:28;;;;;;;6.25;2.35;;;1.40;97.70;;;;;;5059891;28;20017;-72
2021/04/28 00:42:56;;;;;;;4.60;2.50;;;1.30;97.70;;;;;;5042414;28;20028;-73
2021/04/28 00:45:25;;;;;;;4.05;2.10;;;1.30;97.80;;;;;;5059754;28;20337;-72
2021/04/28 00:47:54;;;;;;;4.53;2.00;;;1.30;98.00;;;;;;5059737;28;20047;-73
2021/04/28 00:50:31;;;;;;;7.15;2.25;;;1.30;97.90;;;;;;5058996;28;20025;-72
2021/04/28 00:53:00;;;;;;;5.43;1.92;;;1.30;98.10;;;;;;5040642;28;20029;-73
2021/04/28 00:55:28;;;;;;;3.25;2.22;;;1.20;98.20;;;;;;5058251;28;20021;-72
2021/04/28 00:57:55;;;;;;;5.47;2.22;;;1.20;98.70;;;;;;5040539;28;20031;-73
2021/04/28 01:00:24;;;;;;;4.60;2.50;;;1.10;98.90;;;;;;5058776;28;20017;-73
2021/04/28 01:02:52;;;;;;;4.80;2.10;;;1.10;99.20;;;;;;5058376;28;20398;-73
2021/04/28 01:05:21;;;;;;;3.53;2.22;;;1.00;99.30;;;;;;5058445;28;20049;-72
2021/04/28 01:07:50;;;;;;;4.35;2.38;;;1.00;99.70;;;;;;5040280;28;20064;-73
2021/04/28 01:10:25;;;;;;;6.30;2.00;;;1.00;99.80;;;;;;5058346;28;20317;-73
2021/04/28 01:12:54;;;;;;;4.78;2.03;;;0.90;99.90;;;;;;5057792;28;20021;-73
2021/04/28 01:15:26;;;;;;;3.30;1.83;;;0.90;99.90;;;;;;5040998;28;20374;-72
2021/04/28 01:17:55;;;;;;;3.75;2.08;;;0.90;99.90;;;;;;5040937;28;20025;-73
2021/04/28 01:20:24;;;;;;;5.25;2.50;;;0.90;99.90;;;;;;5058937;28;20021;-72
2021/04/28 01:22:52;;;;;;;4.03;2.15;;;0.90;99.90;;;;;;5058577;28;20152;-72
2021/04/28 01:25:24;;;;;;;4.07;1.98;;;0.80;99.90;;;;;;5058511;28;20032;-73
2021/04/28 01:27:59;;;;;;;3.53;1.98;;;0.80;99.90;;;;;;5058513;28;20028;-73
2021/04/28 01:30:42;;;;;;;3.28;1.90;;;0.80;99.90;;;;;;5058909;28;20099;-71
2021/04/28 01:33:16;;;;;;;4.78;2.50;;;0.80;99.90;;;;;;5040082;28;20029;-72
2021/04/28 01:35:46;;;;;;;4.78;2.35;;;0.80;99.90;;;;;;5057642;28;20099;-72
2021/04/28 01:38:14;;;;;;;4.80;2.55;;;0.70;99.90;;;;;;5057199;28;20064;-73
2021/04/28 01:40:43;;;;;;;5.50;2.47;;;0.70;99.90;;;;;;5039705;28;20028;-72
2021/04/28 01:43:11;;;;;;;6.22;2.13;;;0.70;99.90;;;;;;5039581;28;20021;-72
2021/04/28 01:45:39;;;;;;;5.53;2.03;;;0.70;99.90;;;;;;5057509;28;20032;-72
2021/04/28 01:48:07;;;;;;;4.45;2.50;;;0.60;99.90;;;;;;5022989;28;20028;-73
2021/04/28 01:50:35;;;;;;;6.65;2.33;;;0.60;99.90;;;;;;5057773;28;20020;-73
2021/04/28 01:53:04;;;;;;;4.80;2.25;;;0.60;99.90;;;;;;5057571;28;20036;-73
2021/04/28 01:55:33;;;;;;;4.03;2.40;;;0.60;99.90;;;;;;5057630;28;20036;-72
2021/04/28 01:58:04;;;;;;;4.15;2.05;;;0.50;99.90;;;;;;5057850;28;20017;-73
2021/04/28 02:00:32;;;;;;;4.75;2.22;;;0.50;99.90;;;;;;5057914;28;20075;-73
2021/04/28 02:03:00;;;;;;;9.48;2.70;;;0.50;99.90;;;;;;5057852;28;20021;-72
2021/04/28 02:05:28;;;;;;;4.32;2.05;;;0.50;99.90;;;;;;5057687;28;20025;-72
2021/04/28 02:07:56;;;;;;;6.60;2.50;;;0.50;99.90;;;;;;5040056;28;20433;-72
2021/04/28 02:10:22;;;;;;;4.25;2.13;;;0.50;99.90;;;;;;5058011;28;20414;-72
2021/04/28 02:12:51;;;;;;;3.53;2.00;;;0.40;99.90;;;;;;5039592;28;20029;-72
2021/04/28 02:15:20;;;;;;;4.47;2.30;;;0.40;99.90;;;;;;5056748;28;20071;-72
2021/04/28 02:18:00;;;;;;;4.60;2.50;;;0.40;99.90;;;;;;5056726;28;20032;-72
2021/04/28 02:20:28;;;;;;;4.57;2.38;;;0.40;99.90;;;;;;5057162;28;20017;-72
2021/04/28 02:23:01;;;;;;;6.13;2.30;;;0.40;99.90;;;;;;5056592;28;20096;-73
2021/04/28 02:25:29;;;;;;;6.60;2.60;;;0.30;99.90;;;;;;5057288;28;20405;-73
2021/04/28 02:27:56;;;;;;;4.63;2.25;;;0.30;99.90;;;;;;5038861;28;20028;-72
2021/04/28 02:30:27;;;;;;;4.22;2.15;;;0.20;99.90;;;;;;5056509;28;20025;-73
2021/04/28 02:32:55;;;;;;;6.22;2.58;;;0.10;99.90;;;;;;5056477;28;20025;-72
2021/04/28 02:35:24;;;;;;;4.70;2.38;;;0.10;99.90;;;;;;5056952;28;20025;-73
2021/04/28 02:38:25;;;;;;;4.82;2.42;;;0.00;99.90;;;;;;5057351;28;20017;-73
2021/04/28 02:40:54;;;;;;;4.07;2.10;;;0.00;99.90;;;;;;5034167;28;20143;-72
2021/04/28 02:43:23;;;;;;;4.00;2.20;;;0.00;99.90;;;;;;5057193;28;20025;-73
2021/04/28 02:45:53;;;;;;;4.72;2.70;;;0.00;99.90;;;;;;5039751;28;20029;-73
2021/04/28 02:48:25;;;;;;;5.78;2.30;;;0.00;99.90;;;;;;5057246;28;20101;-72
2021/04/28 02:50:54;;;;;;;5.13;2.35;;;0.00;99.90;;;;;;5057084;28;20021;-73
2021/04/28 02:53:26;;;;;;;4.35;2.65;;;0.00;99.90;;;;;;5039474;28;20028;-73
2021/04/28 02:55:56;;;;;;;7.60;2.67;;;0.00;99.90;;;;;;5056514;28;20032;-72
2021/04/28 02:58:26;;;;;;;6.75;2.28;;;0.00;99.90;;;;;;5056172;28;20021;-73
2021/04/28 03:00:55;;;;;;;5.47;2.53;;;-0.10;99.90;;;;;;5056754;28;20361;-73
2021/04/28 03:03:23;;;;;;;6.03;2.60;;;-0.10;99.90;;;;;;5056152;28;20018;-73
2021/04/28 03:05:54;;;;;;;5.05;2.10;;;-0.10;99.90;;;;;;5056809;28;20021;-73
2021/04/28 03:08:23;;;;;;;5.38;2.13;;;-0.20;99.90;;;;;;5056045;28;20025;-74
2021/04/28 03:10:51;;;;;;;4.63;2.15;;;-0.20;99.90;;;;;;5056396;28;20048;-72
2021/04/28 03:13:19;;;;;;;5.13;2.50;;;-0.20;99.90;;;;;;5056194;28;20433;-73
2021/04/28 03:15:50;;;;;;;4.18;2.70;;;-0.20;99.90;;;;;;5038237;28;20448;-72
2021/04/28 03:18:21;;;;;;;14.23;2.67;;;-0.20;99.90;;;;;;5057077;28;20317;-72
2021/04/28 03:20:48;;;;;;;6.78;2.50;;;-0.20;99.90;;;;;;5057088;28;20032;-73
2021/04/28 03:23:16;;;;;;;10.10;2.33;;;-0.20;99.90;;;;;;5057153;28;20025;-72
2021/04/28 03:25:44;;;;;;;4.88;2.42;;;-0.20;99.90;;;;;;5057632;28;20373;-72
2021/04/28 03:28:11;;;;;;;3.90;1.90;;;-0.30;99.90;;;;;;5056833;28;20025;-73
2021/04/28 03:30:40;;;;;;;6.95;2.42;;;-0.20;99.90;;;;;;5057033;28;20056;-72
2021/04/28 03:33:08;;;;;;;7.03;2.67;;;-0.30;99.90;;;;;;5056788;28;20025;-72
2021/04/28 03:35:37;;;;;;;7.10;2.10;;;-0.30;99.90;;;;;;5056739;28;20108;-73
2021/04/28 03:38:05;;;;;;;7.82;2.88;;;-0.30;99.90;;;;;;5055724;28;20029;-72
2021/04/28 03:40:32;;;;;;;3.78;2.15;;;-0.30;99.90;;;;;;5056018;28;20052;-73
2021/04/28 03:43:00;;;;;;;4.03;2.28;;;-0.40;99.90;;;;;;5055810;28;20013;-72
2021/04/28 03:45:27;;;;;;;4.03;2.28;;;-0.40;99.90;;;;;;5038880;28;20029;-72
2021/04/28 03:47:55;;;;;;;6.70;2.50;;;-0.40;99.90;;;;;;5038051;28;20372;-73
2021/04/28 03:50:23;;;;;;;4.88;2.38;;;-0.50;99.90;;;;;;5056013;28;20029;-72
2021/04/28 03:52:51;;;;;;;6.63;2.15;;;-0.50;99.90;;;;;;5056282;28;20021;-73
2021/04/28 03:55:19;;;;;;;6.50;2.75;;;-0.50;99.90;;;;;;5056186;28;20306;-73
2021/04/28 03:57:48;;;;;;;3.60;2.03;;;-0.50;99.90;;;;;;5056380;28;20021;-73
2021/04/28 04:00:16;;;;;;;5.53;2.13;;;-0.50;99.90;;;;;;5056724;28;20028;-72
2021/04/28 04:02:44;;;;;;;5.35;2.50;;;-0.60;99.90;;;;;;5057818;28;20017;-72
2021/04/28 04:05:12;;;;;;;3.83;2.20;;;-0.60;99.90;;;;;;5060619;28;20047;-73
2021/04/28 04:07:40;;;;;;;6.32;2.95;;;-0.60;99.90;;;;;;5059993;28;20025;-73
2021/04/28 04:10:07;;;;;;;6.15;2.47;;;-0.60;99.90;;;;;;5060188;28;20047;-73
2021/04/28 04:12:35;;;;;;;4.95;2.40;;;-0.60;99.90;;;;;;5059996;28;20055;-73
2021/04/28 04:15:03;;;;;;;3.92;2.20;;;-0.60;99.90;;;;;;5059664;28;20052;-72
2021/04/28 04:17:32;;;;;;;4.88;2.35;;;-0.50;99.90;;;;;;5059540;28;20048;-73
2021/04/28 04:19:59;;;;;;;5.03;2.50;;;-0.50;99.90;;;;;;5041409;28;20324;-73
2021/04/28 04:22:27;;;;;;;5.70;2.42;;;-0.50;99.90;;;;;;5058729;28;20068;-73
2021/04/28 04:24:55;;;;;;;3.47;2.08;;;-0.40;99.90;;;;;;5059902;28;20393;-72
2021/04/28 04:27:22;;;;;;;4.03;2.38;;;-0.50;99.90;;;;;;5041034;28;20025;-73
2021/04/28 04:29:50;;;;;;;6.22;2.65;;;-0.40;99.90;;;;;;5058981;28;20028;-73
2021/04/28 04:32:18;;;;;;;7.15;2.33;;;-0.40;99.90;;;;;;5058631;28;20111;-72
2021/04/28 04:34:46;;;;;;;6.28;2.63;;;-0.40;99.90;;;;;;5040867;28;20035;-72
2021/04/28 04:37:13;;;;;;;8.25;2.15;;;-0.50;99.90;;;;;;5058502;28;20417;-72
2021/04/28 04:39:41;;;;;;;4.43;2.22;;;-0.50;99.90;;;;;;5059027;28;20021;-72
2021/04/28 04:42:10;;;;;;;4.85;2.42;;;-0.50;99.90;;;;;;5041757;28;20444;-73
2021/04/28 04:44:38;;;;;;;6.55;2.83;;;-0.50;99.90;;;;;;5059544;28;20056;-72
2021/04/28 04:47:09;;;;;;;10.55;3.40;;;-0.50;99.90;;;;;;5059254;28;20104;-73
2021/04/28 04:49:42;;;;;;;8.15;2.90;;;-0.40;99.90;;;;;;5041621;28;20379;-73
2021/04/28 04:52:11;;;;;;;4.38;2.33;;;-0.40;99.90;;;;;;5059068;28;20048;-72
2021/04/28 04:54:38;;;;;;;5.57;2.50;;;-0.40;99.90;;;;;;5059173;28;20031;-72
2021/04/28 04:57:06;;;;;;;5.32;3.10;;;-0.30;99.90;;;;;;5041378;28;20057;-72
2021/04/28 04:59:34;;;;;;;4.68;2.38;;;-0.20;99.90;;;;;;5058703;28;20025;-72
2021/04/28 05:02:01;;;;;;;4.90;2.63;;;-0.10;99.90;;;;;;5058157;28;20028;-73
2021/04/28 05:04:29;;;;;;;6.50;2.88;;;0.00;99.90;;;;;;5058313;28;20025;-72
2021/04/28 05:06:56;;;;;;;4.90;2.65;;;0.10;99.90;;;;;;5058401;28;20021;-73
2021/04/28 05:09:24;;;;;;;4.38;2.03;;;0.20;99.90;;;;;;5058179;28;20501;-72
2021/04/28 05:11:52;;;;;;;5.03;2.72;;;0.30;99.90;;;;;;5058018;28;20032;-72
2021/04/28 05:14:20;;;;;;;4.57;2.38;;;0.40;99.90;;;;;;5057181;28;20349;-72
2021/04/28 05:16:48;;;;;;;3.53;2.17;;;0.50;99.90;;;;;;5040364;28;20551;-72
2021/04/28 05:19:16;;;;;;;3.03;1.98;;;0.60;99.90;;;;;;5057817;28;20337;-73
2021/04/28 05:21:43;;;;;;;5.95;3.13;;;0.60;99.90;;;;;;5058273;28;20071;-73
2021/04/28 05:24:11;;;;;;;5.95;2.78;;;0.70;99.90;;;;;;5040833;28;20368;-73
2021/04/28 05:26:38;;;;;;;5.43;2.75;;;0.80;99.90;;;;;;5059112;28;20406;-72
2021/04/28 05:29:06;;;;;;;6.43;2.92;;;0.90;99.90;;;;;;5058718;28;20108;-74
2021/04/28 05:31:34;;;;;;;7.07;3.58;;;1.00;99.90;;;;;;5040787;28;20441;-71
2021/04/28 05:34:02;;;;;;;20.38;8.13;;;1.10;99.90;;;;;;5058889;28;20025;-71
2021/04/28 05:36:29;;;;;;;21.15;8.52;;;1.20;99.90;;;;;;5058487;28;20021;-71
2021/04/28 05:38:59;;;;;;;21.17;8.38;;;1.30;99.90;;;;;;5040674;28;20031;-70
2021/04/28 05:41:28;;;;;;;14.68;5.93;;;1.40;99.90;;;;;;5057672;28;20152;-71
2021/04/28 05:43:58;;;;;;;10.90;4.70;;;1.50;99.90;;;;;;5057552;28;20027;-70
2021/04/28 05:46:26;;;;;;;11.48;4.65;;;1.60;99.90;;;;;;5057317;28;20025;-71
2021/04/28 05:48:53;;;;;;;10.93;4.18;;;1.70;99.90;;;;;;5058007;28;20314;-71
2021/04/28 05:51:21;;;;;;;10.98;3.90;;;1.70;99.90;;;;;;5057126;28;20017;-68
2021/04/28 05:53:49;;;;;;;8.98;4.50;;;1.80;99.90;;;;;;5057599;28;20021;-68
2021/04/28 05:56:17;;;;;;;9.63;4.43;;;1.90;99.90;;;;;;5039627;28;20071;-68
2021/04/28 05:58:45;;;;;;;9.35;3.45;;;2.00;99.90;;;;;;5057316;28;20021;-69
2021/04/28 06:01:12;;;;;;;7.10;3.13;;;2.10;99.90;;;;;;5039430;28;20036;-70
2021/04/28 06:03:41;;;;;;;5.20;2.85;;;2.20;99.90;;;;;;5040104;28;20021;-68
2021/04/28 06:06:09;;;;;;;7.22;2.78;;;2.30;99.90;;;;;;5057860;28;20032;-68
2021/04/28 06:08:37;;;;;;;7.05;2.53;;;2.40;99.90;;;;;;5040261;28;20025;-69
2021/04/28 06:11:04;;;;;;;7.53;2.42;;;2.50;99.90;;;;;;5040244;28;20302;-68
2021/04/28 06:13:32;;;;;;;5.40;2.72;;;2.60;99.90;;;;;;5058058;28;20441;-68
2021/04/28 06:15:59;;;;;;;10.00;2.63;;;2.70;99.90;;;;;;5057814;28;20025;-68
2021/04/28 06:18:27;;;;;;;6.05;3.20;;;2.90;99.90;;;;;;5058093;28;20035;-69
2021/04/28 06:20:55;;;;;;;7.13;3.47;;;3.00;99.90;;;;;;5057643;28;20049;-71
2021/04/28 06:23:23;;;;;;;12.73;3.45;;;3.10;99.90;;;;;;5057482;28;20032;-72
2021/04/28 06:25:51;;;;;;;9.32;3.63;;;3.30;99.90;;;;;;5056057;28;20025;-69
2021/04/28 06:28:19;;;;;;;6.15;2.60;;;3.40;99.70;;;;;;5057225;28;20047;-72
2021/04/28 06:30:46;;;;;;;18.42;3.50;;;3.50;99.40;;;;;;5056818;28;20021;-70
2021/04/28 06:33:14;;;;;;;5.45;3.00;;;3.70;99.00;;;;;;5057285;28;20444;-71
2021/04/28 06:35:42;;;;;;;6.97;2.45;;;3.80;98.50;;;;;;5056833;28;20025;-69
2021/04/28 06:38:09;;;;;;;5.32;2.60;;;4.00;98.10;;;;;;5056556;28;20021;-70
2021/04/28 06:40:38;;;;;;;4.75;2.67;;;4.10;97.70;;;;;;5056427;28;20017;-70
2021/04/28 06:43:05;;;;;;;9.15;2.65;;;4.20;97.30;;;;;;5057228;28;20410;-71
2021/04/28 06:45:37;;;;;;;5.05;2.33;;;4.30;96.70;;;;;;5057204;28;20100;-70
2021/04/28 06:48:06;;;;;;;5.43;2.22;;;4.40;96.00;;;;;;5057485;28;20021;-70
2021/04/28 06:50:34;;;;;;;7.82;2.63;;;4.60;95.30;;;;;;5057135;28;20485;-71
2021/04/28 06:53:02;;;;;;;6.97;3.00;;;4.70;94.50;;;;;;5057140;28;20029;-83
2021/04/28 06:55:30;;;;;;;9.50;3.20;;;4.80;94.30;;;;;;5039230;28;20029;-70
2021/04/28 06:57:58;;;;;;;5.72;3.13;;;4.90;94.30;;;;;;5057136;28;20017;-71
2021/04/28 07:00:28;;;;;;;9.45;2.70;;;5.00;94.10;;;;;;5057158;28;20017;-71
2021/04/28 07:02:57;;;;;;;7.82;2.55;;;5.10;93.80;;;;;;5057673;28;20021;-71
2021/04/28 07:05:27;;;;;;;25.23;3.15;;;5.20;93.10;;;;;;5055978;28;20364;-71
2021/04/28 07:07:55;;;;;;;6.55;2.63;;;5.30;92.30;;;;;;5056392;28;20025;-71
2021/04/28 07:10:23;;;;;;;7.10;2.30;;;5.40;91.80;;;;;;5056792;28;20021;-70
2021/04/28 07:12:53;;;;;;;6.07;2.78;;;5.50;91.30;;;;;;5055948;28;20417;-69
2021/04/28 07:15:20;;;;;;;7.55;2.63;;;5.60;90.90;;;;;;5055691;28;20044;-70
2021/04/28 07:17:49;;;;;;;5.85;2.67;;;5.70;90.70;;;;;;5038210;28;20025;-70
2021/04/28 07:20:17;;;;;;;6.18;2.63;;;5.80;90.60;;;;;;5055833;28;20486;-70
2021/04/28 07:22:44;;;;;;;6.45;2.85;;;5.90;90.30;;;;;;5056469;28;20060;-70
2021/04/28 07:25:12;;;;;;;9.30;3.05;;;6.10;90.00;;;;;;5056308;28;20021;-69
2021/04/28 07:27:43;;;;;;;5.82;3.10;;;6.20;89.40;;;;;;5056800;28;20029;-70
2021/04/28 07:30:13;;;;;;;6.80;2.90;;;6.30;89.80;;;;;;5057174;28;20062;-70
2021/04/28 07:32:41;;;;;;;4.90;2.78;;;6.40;90.00;;;;;;5056837;28;20413;-70
2021/04/28 07:35:10;;;;;;;6.95;3.33;;;6.50;90.40;;;;;;5056617;28;20021;-70
2021/04/28 07:37:38;;;;;;;7.32;3.28;;;6.60;90.10;;;;;;5059424;28;20485;-72
2021/04/28 07:40:08;;;;;;;8.32;3.22;;;6.80;89.60;;;;;;5060621;28;20104;-70
2021/04/28 07:42:36;;;;;;;9.65;3.83;;;6.90;89.30;;;;;;5043120;28;20025;-71
2021/04/28 07:45:05;;;;;;;6.18;3.40;;;7.00;88.80;;;;;;5059977;28;20106;-71
2021/04/28 07:47:33;;;;;;;14.25;4.03;;;7.10;89.00;;;;;;5059399;28;20090;-69
2021/04/28 07:50:13;;;;;;;10.00;3.60;;;7.20;88.80;;;;;;5059437;28;20025;-69
2021/04/28 07:52:42;;;;;;;8.65;3.25;;;7.30;88.30;;;;;;5059671;28;20024;-71
2021/04/28 07:55:11;;;;;;;8.35;3.38;;;7.40;88.40;;;;;;5059658;28;20025;-71
2021/04/28 07:57:40;;;;;;;7.75;3.55;;;7.50;87.20;;;;;;5059806;28;20025;-70
2021/04/28 08:00:09;;;;;;;12.25;4.22;;;7.60;86.20;;;;;;5059146;28;20048;-70
2021/04/28 08:02:37;;;;;;;10.57;3.30;;;7.70;86.50;;;;;;5059341;28;20111;-71
2021/04/28 08:05:06;;;;;;;10.93;3.47;;;7.90;84.50;;;;;;5059072;28;20055;-71
2021/04/28 08:07:34;;;;;;;8.05;3.40;;;8.00;83.90;;;;;;5059748;28;20372;-72
2021/04/28 08:10:04;;;;;;;6.07;3.25;;;8.10;84.30;;;;;;5060245;28;20348;-74
2021/04/28 08:12:32;;;;;;;6.70;3.38;;;8.30;84.40;;;;;;5042497;28;20025;-75
2021/04/28 08:15:01;;;;;;;7.13;3.78;;;8.40;84.70;;;;;;5059590;28;20448;-74
2021/04/28 08:17:29;;;;;;;5.75;3.35;;;8.50;83.80;;;;;;5042260;28;20028;-74
2021/04/28 08:19:58;;;;;;;8.55;3.45;;;8.50;82.90;;;;;;5059708;28;20048;-74
2021/04/28 08:22:26;;;;;;;20.25;3.75;;;8.60;82.30;;;;;;5059832;28;20059;-74
2021/04/28 08:24:55;;;;;;;7.75;3.40;;;8.80;82.50;;;;;;5042087;28;20025;-73
2021/04/28 08:27:24;;;;;;;7.13;3.55;;;8.90;82.20;;;;;;5059555;28;20021;-73
2021/04/28 08:29:52;;;;;;;7.05;3.42;;;8.90;80.60;;;;;;5041590;28;20078;-75
2021/04/28 08:32:20;;;;;;;5.65;3.08;;;9.10;79.40;;;;;;5040988;28;20029;-75
2021/04/28 08:34:48;;;;;;;9.77;4.43;;;9.20;79.40;;;;;;5058479;28;20025;-75
2021/04/28 08:37:16;;;;;;;9.40;3.42;;;9.30;78.50;;;;;;5040845;28;20033;-75
2021/04/28 08:39:44;;;;;;;5.50;3.33;;;9.40;78.20;;;;;;5058851;28;20025;-75
2021/04/28 08:42:12;;;;;;;7.65;3.50;;;9.50;77.70;;;;;;5058753;28;20028;-75
2021/04/28 08:44:41;;;;;;;8.30;3.90;;;9.50;77.30;;;;;;5058598;28;20021;-75
2021/04/28 08:47:09;;;;;;;9.48;4.15;;;9.60;77.60;;;;;;5058581;28;20096;-75
2021/04/28 08:49:38;;;;;;;8.10;4.10;;;9.80;76.50;;;;;;5040284;28;20325;-73
2021/04/28 08:52:07;;;;;;;10.07;3.90;;;9.90;75.80;;;;;;5059165;28;20068;-73
2021/04/28 08:54:38;;;;;;;9.05;4.03;;;10.00;75.70;;;;;;5059166;28;20436;-73
2021/04/28 08:57:06;;;;;;;7.10;4.00;;;10.10;75.10;;;;;;5059642;28;20029;-74
2021/04/28 08:59:33;;;;;;;7.47;4.03;;;10.20;75.50;;;;;;5059161;28;20024;-74
2021/04/28 09:02:21;;;;;;;14.18;4.20;;;10.30;74.30;;;;;;5059526;28;20356;-74
2021/04/28 09:05:07;;;;;;;6.85;3.88;;;10.40;73.40;;;;;;5059745;28;20036;-74
2021/04/28 09:07:36;;;;;;;7.25;3.95;;;10.50;72.30;;;;;;5059329;28;20021;-74
2021/04/28 09:10:14;;;;;;;8.93;4.35;;;10.70;72.10;;;;;;5057933;28;20029;-74
2021/04/28 09:12:55;;;;;;;7.35;4.47;;;10.80;72.20;;;;;;5058411;28;20048;-74
2021/04/28 09:15:43;;;;;;;7.38;4.38;;;11.00;71.40;;;;;;5018084;28;20116;-74
2021/04/28 09:18:14;;;;;;;10.27;4.65;;;11.10;70.60;;;;;;5018126;28;20033;-74
2021/04/28 09:20:49;;;;;;;8.48;3.97;;;11.20;69.90;;;;;;5017935;28;20076;-74
2021/04/28 09:23:29;;;;;;;12.70;5.07;;;11.30;70.00;;;;;;5018171;28;20021;-75
2021/04/28 09:25:57;;;;;;;9.73;5.05;;;11.50;69.20;;;;;;5018047;28;20049;-74
2021/04/28 09:28:29;;;;;;;11.20;4.70;;;11.60;69.30;;;;;;5017842;28;20458;-74
2021/04/28 09:31:09;;;;;;;9.25;4.90;;;11.70;67.50;;;;;;5018389;28;20030;-75
2021/04/28 09:33:50;;;;;;;11.50;5.78;;;11.80;66.00;;;;;;5018951;28;20076;-75
2021/04/28 09:36:27;;;;;;;9.35;4.75;;;11.80;65.70;;;;;;5018995;28;20018;-75
2021/04/28 09:38:57;;;;;;;12.10;4.72;;;11.90;65.80;;;;;;5017435;28;20026;-75
2021/04/28 09:41:31;;;;;;;13.23;5.25;;;12.00;66.20;;;;;;5018691;28;20018;-75
2021/04/28 09:44:00;;;;;;;8.35;4.88;;;12.10;66.00;;;;;;5018943;28;20026;-73
2021/04/28 09:46:28;;;;;;;9.20;4.38;;;12.20;66.50;;;;;;5017423;28;20108;-74
2021/04/28 09:49:09;;;;;;;9.48;4.72;;;12.40;65.60;;;;;;5019075;28;20026;-74
2021/04/28 09:51:38;;;;;;;9.75;4.82;;;12.50;64.00;;;;;;5017539;28;20053;-74
2021/04/28 09:54:12;;;;;;;16.40;5.05;;;12.60;62.50;;;;;;5017360;28;20370;-75
2021/04/28 09:56:44;;;;;;;10.65;5.30;;;12.70;62.10;;;;;;5017991;28;20022;-76
2021/04/28 09:59:12;;;;;;;10.77;5.80;;;12.80;61.90;;;;;;5017595;28;20017;-75
2021/04/28 10:01:43;;;;;;;12.98;5.68;;;12.90;61.60;;;;;;5017471;28;20026;-76
2021/04/28 10:04:12;;;;;;;12.52;5.45;;;13.00;61.20;;;;;;5020299;28;20022;-75
2021/04/28 10:06:52;;;;;;;10.60;5.30;;;13.10;61.40;;;;;;5017601;28;20048;-75
2021/04/28 10:09:39;;;;;;;9.57;4.93;;;13.20;61.20;;;;;;5016101;28;20026;-75
2021/04/28 10:12:08;;;;;;;9.00;4.93;;;13.30;59.60;;;;;;5017598;28;20419;-75
2021/04/28 10:14:37;;;;;;;8.13;4.68;;;13.40;60.00;;;;;;5031094;28;20140;-75
2021/04/28 10:17:07;;;;;;;9.23;5.05;;;13.50;60.20;;;;;;5037814;28;20017;-75
2021/04/28 10:19:44;;;;;;;9.50;5.43;;;13.60;59.90;;;;;;5037877;28;20068;-76
2021/04/28 10:22:15;;;;;;;7.82;5.18;;;13.60;59.40;;;;;;5038202;28;20017;-75
2021/04/28 10:24:46;;;;;;;9.30;5.38;;;13.70;58.50;;;;;;5038251;28;20022;-74
2021/04/28 10:27:17;;;;;;;11.52;5.25;;;13.80;58.40;;;;;;5037658;28;20021;-75
2021/04/28 10:29:46;;;;;;;8.45;5.30;;;13.90;58.90;;;;;;5037436;28;20025;-75
2021/04/28 10:32:16;;;;;;;8.93;4.93;;;14.10;58.20;;;;;;5036850;28;20052;-75
2021/04/28 10:35:03;;;;;;;16.15;5.93;;;14.10;58.50;;;;;;5036504;28;20022;-75
2021/04/28 10:37:30;;;;;;;;;;;14.20;59.20;;;;;;5036987;28;20026;-75
2021/04/28 10:39:58;;;;;;;10.82;5.07;;;14.40;57.70;;;;;;5036822;28;19998;-74
2021/04/28 10:42:31;;;;;;;11.50;5.60;;;14.50;56.80;;;;;;5036638;28;20028;-83
2021/04/28 10:44:59;;;;;;;11.10;5.05;;;14.60;56.40;;;;;;5036484;28;20426;-75
2021/04/28 10:47:32;;;;;;;11.82;5.43;;;14.70;55.40;;;;;;5036344;28;20029;-75
2021/04/28 10:50:06;;;;;;;9.10;4.90;;;14.80;54.80;;;;;;5035158;28;20064;-75
2021/04/28 10:52:36;;;;;;;9.77;5.43;;;15.00;54.80;;;;;;5036579;28;20026;-73
2021/04/28 10:55:05;;;;;;;8.57;5.53;;;15.20;53.00;;;;;;5037002;28;20099;-75
2021/04/28 10:57:36;;;;;;;9.80;5.22;;;15.40;54.90;;;;;;5037274;28;20020;-75
2021/04/28 11:00:26;;;;;;;13.43;6.28;;;15.50;54.20;;;;;;5037529;28;20441;-75
2021/04/28 11:02:55;;;;;;;10.05;5.22;;;15.60;54.00;;;;;;5037366;28;20113;-75
2021/04/28 11:05:28;;;;;;;10.60;5.50;;;15.70;51.30;;;;;;5037619;28;20053;-76
2021/04/28 11:07:58;;;;;;;10.02;5.40;;;15.80;51.40;;;;;;5036099;28;20123;-75
2021/04/28 11:10:37;;;;;;;10.07;5.45;;;15.80;50.80;;;;;;5037534;28;20029;-75
2021/04/28 11:13:08;;;;;;;8.63;4.70;;;15.80;49.60;;;;;;5042173;28;20472;-75
2021/04/28 11:15:48;;;;;;;9.23;5.53;;;16.00;50.00;;;;;;5043156;28;20033;-74
2021/04/28 11:18:36;;;;;;;9.85;5.07;;;16.20;49.20;;;;;;5060491;28;20031;-74
2021/04/28 11:21:19;;;;;;;10.77;4.25;;;16.40;49.30;;;;;;5060292;28;20049;-75
2021/04/28 11:24:12;;;;;;;7.40;4.10;;;16.60;47.20;;;;;;5060631;28;20045;-75
2021/04/28 11:26:53;;;;;;;8.27;4.68;;;16.80;46.10;;;;;;5060259;28;20321;-75
2021/04/28 11:29:22;;;;;;;11.00;5.35;;;16.90;44.50;;;;;;5042309;28;20025;-75
2021/04/28 11:31:58;;;;;;;7.63;4.60;;;16.90;44.20;;;;;;5060208;28;20032;-75
2021/04/28 11:34:36;;;;;;;11.82;5.20;;;17.00;44.90;;;;;;5042218;28;20306;-75
2021/04/28 11:37:09;;;;;;;14.30;5.80;;;17.10;45.80;;;;;;5060949;28;20018;-76
2021/04/28 11:39:39;;;;;;;9.70;4.15;;;17.30;46.80;;;;;;5060860;28;20047;-75
2021/04/28 11:42:14;;;;;;;8.65;4.95;;;17.40;46.70;;;;;;5043053;28;20114;-76
2021/04/28 11:44:54;;;;;;;11.02;5.07;;;17.60;44.90;;;;;;5043110;28;20032;-76
2021/04/28 11:47:27;;;;;;;7.78;4.88;;;17.70;45.40;;;;;;5063240;28;20033;-76
2021/04/28 11:49:56;;;;;;;7.50;4.97;;;17.80;44.20;;;;;;5060611;28;20322;-76
2021/04/28 11:52:26;;;;;;;8.45;4.30;;;17.80;45.40;;;;;;5060825;28;20021;-74
2021/04/28 11:54:56;;;;;;;6.38;3.92;;;17.90;44.40;;;;;;5060063;28;20131;-74
2021/04/28 11:57:32;;;;;;;13.02;3.30;;;18.00;43.20;;;;;;5060058;28;20021;-73
2021/04/28 12:00:09;;;;;;;4.95;3.13;;;18.10;41.60;;;;;;5041815;28;20447;-73
2021/04/28 12:02:37;;;;;;;9.25;4.15;;;18.20;42.00;;;;;;5059543;28;20087;-74
2021/04/28 12:05:06;;;;;;;5.78;3.35;;;18.30;41.60;;;;;;5059245;28;20021;-73
2021/04/28 12:07:35;;;;;;;9.50;4.18;;;18.40;41.60;;;;;;5059286;28;20139;-75
2021/04/28 12:10:03;;;;;;;6.45;3.20;;;18.50;40.80;;;;;;5059121;28;20021;-74
2021/04/28 12:12:35;;;;;;;7.35;3.63;;;18.50;40.00;;;;;;5041248;28;20021;-74
2021/04/28 12:15:08;;;;;;;11.30;3.58;;;18.70;40.30;;;;;;5058728;28;20068;-72
2021/04/28 12:17:38;;;;;;;6.35;3.30;;;18.80;38.80;;;;;;5059755;28;20051;-73
2021/04/28 12:20:13;;;;;;;6.72;3.88;;;18.80;39.30;;;;;;5042399;28;20025;-76
2021/04/28 12:22:41;;;;;;;10.50;3.47;;;19.00;39.60;;;;;;5058608;28;20081;-74
2021/04/28 12:25:11;;;;;;;6.13;3.72;;;19.00;38.50;;;;;;5059476;28;20056;-75
2021/04/28 12:27:41;;;;;;;10.98;3.88;;;19.10;38.40;;;;;;5059807;28;20076;-76
2021/04/28 12:30:11;;;;;;;8.43;4.15;;;19.30;38.80;;;;;;5042391;28;20333;-75
2021/04/28 12:32:43;;;;;;;8.10;4.82;;;19.40;39.50;;;;;;5060011;28;20104;-75
2021/04/28 12:35:16;;;;;;;7.20;3.90;;;19.50;39.60;;;;;;5060194;28;20029;-73
2021/04/28 12:38:05;;;;;;;6.18;4.05;;;19.60;39.90;;;;;;5041358;28;20021;-76
2021/04/28 12:40:52;;;;;;;6.45;3.97;;;19.70;39.20;;;;;;5041146;28;20017;-77
2021/04/28 12:43:26;;;;;;;7.10;3.80;;;19.80;37.90;;;;;;5059023;28;20059;-77
2021/04/28 12:46:01;;;;;;;10.55;3.72;;;19.80;38.60;;;;;;5041309;28;20360;-79
2021/04/28 12:48:49;;;;;;;7.35;3.95;;;19.70;37.40;;;;;;5059039;28;20108;-79
2021/04/28 12:51:17;;;;;;;5.82;3.60;;;19.60;37.40;;;;;;5058643;28;20025;-78
2021/04/28 12:53:45;;;;;;;4.85;3.42;;;19.50;37.40;;;;;;5058642;28;20074;-79
2021/04/28 12:56:12;;;;;;;6.80;3.83;;;19.40;38.00;;;;;;5058600;28;20033;-78
2021/04/28 12:58:48;;;;;;;11.50;4.30;;;19.30;38.60;;;;;;5040707;28;20368;-79
2021/04/28 13:01:24;;;;;;;7.43;3.75;;;19.40;39.80;;;;;;5059406;28;20048;-79
2021/04/28 13:03:52;;;;;;;7.75;3.83;;;19.60;38.70;;;;;;5041573;28;20036;-75
2021/04/28 13:06:25;;;;;;;7.28;4.13;;;19.60;38.60;;;;;;5059156;28;20025;-77